Time;durP1;ratioP1;P1;durP2;ratioP2;P2;SDS_P1;SDS_P2;PMS_P1;PMS_P2;Temp;Humidity;BMP_temperature;BMP_pressure;BME280_temperature;BME280_humidity;BME280_pressure;Samples;Min_cycle;Max_cycle;Signal;HPM_P1;HPM_P2
2023/03/30 00:02:23;;;;;;;18.85;9.27;;;;;;;;;;5064334;28;20041;-71
2023/03/30 00:04:52;;;;;;;17.23;9.20;;;;;;;;;;5084501;28;20052;-70
2023/03/30 00:07:19;;;;;;;16.20;9.25;;;;;;;;;;5077927;28;20045;-71
2023/03/30 00:09:47;;;;;;;15.55;8.77;;;;;;;;;;5081277;28;20049;-71
2023/03/30 00:12:19;;;;;;;15.05;9.10;;;;;;;;;;5065279;28;20406;-70
2023/03/30 00:14:46;;;;;;;15.52;8.50;;;;;;;;;;5067609;28;20395;-70
2023/03/30 00:17:14;;;;;;;15.05;8.25;;;;;;;;;;5085055;28;20511;-70
2023/03/30 00:19:41;;;;;;;13.18;7.32;;;;;;;;;;5084328;28;20407;-71
2023/03/30 00:22:10;;;;;;;18.38;7.80;;;;;;;;;;5063561;28;21326;-71
2023/03/30 00:24:37;;;;;;;13.10;7.85;;;;;;;;;;5078762;28;20175;-71
2023/03/30 00:27:05;;;;;;;13.90;7.70;;;;;;;;;;5081242;28;20079;-70
2023/03/30 00:29:33;;;;;;;13.32;8.10;;;;;;;;;;5086418;28;20406;-71
2023/03/30 00:32:00;;;;;;;14.40;7.40;;;;;;;;;;5065526;28;20056;-71
2023/03/30 00:34:27;;;;;;;12.18;6.85;;;;;;;;;;5086488;28;20499;-71
2023/03/30 00:36:55;;;;;;;13.25;7.22;;;;;;;;;;5085978;28;20063;-71
2023/03/30 00:39:25;;;;;;;16.75;7.10;;;;;;;;;;5085931;28;21433;-71
2023/03/30 00:41:52;;;;;;;17.73;7.07;;;;;;;;;;5082703;28;20072;-71
2023/03/30 00:44:38;;;;;;;20.02;6.78;;;;;;;;;;5085855;28;20541;-71
2023/03/30 00:47:06;;;;;;;10.70;6.35;;;;;;;;;;5063445;28;20502;-71
2023/03/30 00:49:34;;;;;;;13.80;6.53;;;;;;;;;;5087041;28;20140;-71
2023/03/30 00:52:02;;;;;;;13.50;6.13;;;;;;;;;;5087774;28;20748;-71
2023/03/30 00:54:30;;;;;;;14.43;6.65;;;;;;;;;;5085218;28;20087;-71
2023/03/30 00:56:58;;;;;;;12.23;6.60;;;;;;;;;;5066747;28;20051;-71
2023/03/30 00:59:25;;;;;;;16.45;6.35;;;;;;;;;;5062435;28;20056;-71
2023/03/30 01:01:52;;;;;;;14.10;6.68;;;;;;;;;;5088381;28;20087;-70
2023/03/30 01:04:20;;;;;;;14.20;5.97;;;;;;;;;;5080805;28;20052;-71
2023/03/30 01:06:51;;;;;;;13.23;5.60;;;;;;;;;;5083547;28;20101;-71
2023/03/30 01:09:18;;;;;;;14.15;6.15;;;;;;;;;;5087741;28;20048;-71
2023/03/30 01:11:47;;;;;;;12.05;5.70;;;;;;;;;;5064363;28;20571;-71
2023/03/30 01:14:15;;;;;;;11.70;5.43;;;;;;;;;;5064640;28;20492;-71
2023/03/30 01:16:44;;;;;;;9.80;5.25;;;;;;;;;;5059288;28;20051;-71
2023/03/30 01:19:30;;;;;;;10.02;5.53;;;;;;;;;;5056401;28;20080;-71
2023/03/30 01:22:03;;;;;;;12.73;5.43;;;;;;;;;;5063064;28;20048;-71
2023/03/30 01:24:52;;;;;;;16.65;6.75;;;;;;;;;;5055458;28;20504;-71
2023/03/30 01:27:32;;;;;;;12.30;5.63;;;;;;;;;;5056865;28;20140;-72
2023/03/30 01:30:09;;;;;;;20.50;6.05;;;;;;;;;;5061241;28;20493;-71
2023/03/30 01:32:56;;;;;;;17.85;5.85;;;;;;;;;;5058095;28;20057;-72
2023/03/30 01:35:40;;;;;;;12.38;5.18;;;;;;;;;;5066258;28;20056;-71
2023/03/30 01:38:35;;;;;;;15.48;5.88;;;;;;;;;;5063273;28;20059;-71
2023/03/30 01:41:09;;;;;;;13.68;5.40;;;;;;;;;;5055983;28;20045;-71
2023/03/30 01:43:39;;;;;;;11.85;5.63;;;;;;;;;;5067016;28;20141;-71
2023/03/30 01:46:09;;;;;;;10.32;5.72;;;;;;;;;;5061707;28;20049;-71
2023/03/30 01:48:44;;;;;;;14.77;5.40;;;;;;;;;;5061495;28;20052;-71
2023/03/30 01:51:14;;;;;;;14.60;5.40;;;;;;;;;;5062237;28;20055;-71
2023/03/30 01:53:45;;;;;;;10.93;4.90;;;;;;;;;;5068629;28;20055;-72
2023/03/30 01:56:16;;;;;;;15.48;4.97;;;;;;;;;;5061053;28;20044;-71
2023/03/30 01:58:45;;;;;;;9.73;5.00;;;;;;;;;;5060389;28;20048;-71
2023/03/30 02:01:13;;;;;;;17.00;5.97;;;;;;;;;;5063819;28;20044;-71
2023/03/30 02:03:42;;;;;;;10.60;4.57;;;;;;;;;;5064930;28;20931;-72
2023/03/30 02:06:12;;;;;;;13.93;4.72;;;;;;;;;;5062183;28;20051;-71
2023/03/30 02:08:40;;;;;;;15.05;4.70;;;;;;;;;;5055279;28;20120;-71
2023/03/30 02:11:08;;;;;;;16.63;4.85;;;;;;;;;;5075628;28;20075;-72
2023/03/30 02:13:37;;;;;;;11.13;5.05;;;;;;;;;;5080895;28;20048;-71
2023/03/30 02:16:06;;;;;;;13.32;4.70;;;;;;;;;;5084603;28;20052;-71
2023/03/30 02:18:33;;;;;;;9.15;4.75;;;;;;;;;;5063241;28;20085;-72
2023/03/30 02:21:02;;;;;;;12.75;5.45;;;;;;;;;;5086079;28;20055;-72
2023/03/30 02:23:32;;;;;;;12.15;4.15;;;;;;;;;;5081570;28;20048;-72
2023/03/30 02:25:59;;;;;;;12.88;4.40;;;;;;;;;;5059163;28;20101;-72
2023/03/30 02:28:27;;;;;;;14.57;4.18;;;;;;;;;;5080565;28;20140;-72
2023/03/30 02:30:55;;;;;;;13.68;3.80;;;;;;;;;;5081350;28;20044;-71
2023/03/30 02:33:25;;;;;;;15.50;4.00;;;;;;;;;;5083675;28;20455;-72
2023/03/30 02:36:05;;;;;;;11.60;3.20;;;;;;;;;;5082553;28;20471;-72
2023/03/30 02:38:43;;;;;;;12.95;3.75;;;;;;;;;;5080042;28;20395;-72
2023/03/30 02:41:17;;;;;;;12.40;3.40;;;;;;;;;;5080657;28;20427;-72
2023/03/30 02:43:47;;;;;;;14.13;3.60;;;;;;;;;;5080755;28;20052;-72
2023/03/30 02:46:24;;;;;;;12.57;3.20;;;;;;;;;;5066319;28;20060;-71
2023/03/30 02:48:57;;;;;;;16.58;3.55;;;;;;;;;;5065649;28;20499;-72
2023/03/30 02:51:24;;;;;;;;;;;;;;;;;;5082738;28;20044;-72
2023/03/30 02:53:56;;;;;;;12.50;3.60;;;;;;;;;;5082465;28;19935;-72
2023/03/30 02:56:25;;;;;;;14.98;3.20;;;;;;;;;;5077042;28;20484;-72
2023/03/30 02:58:55;;;;;;;17.25;3.53;;;;;;;;;;5077897;28;20036;-72
2023/03/30 03:01:27;;;;;;;14.13;3.33;;;;;;;;;;5082316;28;20403;-72
2023/03/30 03:03:57;;;;;;;15.35;3.67;;;;;;;;;;5086361;28;20047;-72
2023/03/30 03:06:25;;;;;;;11.20;3.17;;;;;;;;;;5086538;28;20066;-72
2023/03/30 03:08:54;;;;;;;15.10;3.83;;;;;;;;;;5085973;28;20047;-72
2023/03/30 03:11:21;;;;;;;15.15;3.75;;;;;;;;;;5086280;28;20063;-72
2023/03/30 03:13:48;;;;;;;14.05;3.80;;;;;;;;;;5082292;28;20492;-72
2023/03/30 03:16:16;;;;;;;16.60;4.20;;;;;;;;;;5090980;28;20397;-72
2023/03/30 03:18:44;;;;;;;13.05;3.67;;;;;;;;;;5082862;28;20045;-72
2023/03/30 03:21:13;;;;;;;13.32;3.55;;;;;;;;;;5067368;28;20131;-72
2023/03/30 03:23:41;;;;;;;19.20;3.88;;;;;;;;;;5085069;28;20048;-71
2023/03/30 03:26:08;;;;;;;15.05;3.70;;;;;;;;;;5070593;28;20138;-72
2023/03/30 03:28:36;;;;;;;14.02;3.60;;;;;;;;;;5069028;28;20044;-72
2023/03/30 03:31:04;;;;;;;14.35;4.32;;;;;;;;;;5084265;28;20093;-72
2023/03/30 03:33:32;;;;;;;13.57;3.17;;;;;;;;;;5079567;28;20051;-72
2023/03/30 03:36:00;;;;;;;20.33;3.67;;;;;;;;;;5086223;28;20051;-72
2023/03/30 03:38:28;;;;;;;16.83;4.53;;;;;;;;;;5063089;28;20052;-72
2023/03/30 03:40:56;;;;;;;16.40;3.40;;;;;;;;;;5068493;28;20167;-71
2023/03/30 03:43:24;;;;;;;12.43;3.42;;;;;;;;;;5082783;28;20052;-71
2023/03/30 03:45:52;;;;;;;22.88;4.22;;;;;;;;;;5067648;28;20135;-72
2023/03/30 03:48:20;;;;;;;14.75;3.75;;;;;;;;;;5087495;28;20530;-72
2023/03/30 03:50:51;;;;;;;13.77;3.63;;;;;;;;;;5069391;28;20048;-72
2023/03/30 03:53:20;;;;;;;13.57;3.58;;;;;;;;;;5084322;28;20048;-72
2023/03/30 03:55:47;;;;;;;18.60;4.32;;;;;;;;;;5070625;28;20078;-72
2023/03/30 03:58:15;;;;;;;17.65;4.70;;;;;;;;;;5085325;28;20048;-71
2023/03/30 04:00:43;;;;;;;16.55;4.05;;;;;;;;;;5065958;28;20048;-71
2023/03/30 04:03:11;;;;;;;19.35;3.85;;;;;;;;;;5081928;28;20048;-72
2023/03/30 04:05:38;;;;;;;14.07;3.70;;;;;;;;;;5075137;28;20048;-72
2023/03/30 04:08:09;;;;;;;17.20;4.18;;;;;;;;;;5086087;28;20048;-72
2023/03/30 04:10:38;;;;;;;24.98;4.45;;;;;;;;;;5061439;28;20415;-72
2023/03/30 04:13:06;;;;;;;18.55;4.03;;;;;;;;;;5061201;28;20051;-72
2023/03/30 04:15:33;;;;;;;20.58;4.50;;;;;;;;;;5061535;28;20098;-72
2023/03/30 04:18:01;;;;;;;23.75;4.53;;;;;;;;;;5062799;28;20053;-72
2023/03/30 04:20:28;;;;;;;21.75;4.18;;;;;;;;;;5065372;28;20098;-71
2023/03/30 04:22:56;;;;;;;19.52;4.18;;;;;;;;;;5068061;28;20093;-72
2023/03/30 04:25:25;;;;;;;14.30;3.83;;;;;;;;;;5065089;28;20112;-72
2023/03/30 04:27:54;;;;;;;18.77;4.28;;;;;;;;;;5053779;28;20519;-72
2023/03/30 04:30:22;;;;;;;19.90;3.65;;;;;;;;;;5062474;28;20144;-71
2023/03/30 04:33:01;;;;;;;20.10;5.20;;;;;;;;;;5064943;28;20488;-72
2023/03/30 04:35:29;;;;;;;22.30;4.35;;;;;;;;;;5063091;28;20070;-72
2023/03/30 04:37:56;;;;;;;21.33;4.25;;;;;;;;;;5062038;28;20048;-72
2023/03/30 04:40:24;;;;;;;22.40;3.67;;;;;;;;;;5065260;28;20060;-72
2023/03/30 04:42:51;;;;;;;19.83;4.00;;;;;;;;;;5063802;28;20040;-72
2023/03/30 04:45:20;;;;;;;17.10;4.30;;;;;;;;;;5065179;28;20056;-72
2023/03/30 04:47:47;;;;;;;22.13;5.13;;;;;;;;;;5063499;28;20106;-72
2023/03/30 04:50:15;;;;;;;19.30;4.82;;;;;;;;;;5059744;28;20044;-72
2023/03/30 04:52:42;;;;;;;23.10;4.82;;;;;;;;;;5064510;28;20402;-72
2023/03/30 04:55:11;;;;;;;20.70;4.70;;;;;;;;;;5068293;28;20506;-71
2023/03/30 04:57:38;;;;;;;22.83;4.88;;;;;;;;;;5058556;28;20055;-72
2023/03/30 05:00:08;;;;;;;22.77;4.80;;;;;;;;;;5062651;28;20467;-72
2023/03/30 05:02:36;;;;;;;22.83;4.95;;;;;;;;;;5060033;28;20454;-72
2023/03/30 05:05:03;;;;;;;22.38;4.93;;;;;;;;;;5062256;28;20044;-72
2023/03/30 05:07:31;;;;;;;19.38;4.90;;;;;;;;;;5068168;28;20555;-71
2023/03/30 05:09:58;;;;;;;28.45;5.28;;;;;;;;;;5056716;28;20052;-72
2023/03/30 05:12:25;;;;;;;24.08;5.43;;;;;;;;;;5085153;28;20046;-71
2023/03/30 05:14:52;;;;;;;23.88;4.65;;;;;;;;;;5084192;28;20048;-72
2023/03/30 05:17:20;;;;;;;28.88;5.10;;;;;;;;;;5083887;28;20135;-72
2023/03/30 05:19:48;;;;;;;23.73;4.97;;;;;;;;;;5080764;28;20055;-72
2023/03/30 05:22:16;;;;;;;21.92;4.43;;;;;;;;;;5058454;28;20055;-72
2023/03/30 05:24:43;;;;;;;26.42;4.47;;;;;;;;;;5065252;28;20866;-69
2023/03/30 05:27:10;;;;;;;30.55;4.72;;;;;;;;;;5079129;28;20040;-70
2023/03/30 05:29:37;;;;;;;21.63;4.18;;;;;;;;;;5084127;28;20052;-70
2023/03/30 05:32:05;;;;;;;23.58;4.70;;;;;;;;;;5079314;28;20115;-69
2023/03/30 05:34:32;;;;;;;27.25;5.00;;;;;;;;;;5088869;28;20056;-69
2023/03/30 05:37:01;;;;;;;26.08;4.28;;;;;;;;;;5085164;28;20043;-70
2023/03/30 05:39:28;;;;;;;25.45;4.68;;;;;;;;;;5078348;28;20048;-70
2023/03/30 05:41:55;;;;;;;23.73;5.07;;;;;;;;;;5084470;28;20052;-69
2023/03/30 05:44:23;;;;;;;17.90;3.92;;;;;;;;;;5079233;28;20041;-69
2023/03/30 05:46:50;;;;;;;17.73;3.80;;;;;;;;;;5083263;28;20048;-69
2023/03/30 05:49:17;;;;;;;22.77;3.53;;;;;;;;;;5064299;28;20059;-70
2023/03/30 05:51:45;;;;;;;24.92;4.00;;;;;;;;;;5088182;28;20062;-69
2023/03/30 05:54:14;;;;;;;25.23;4.13;;;;;;;;;;5082285;28;20057;-70
2023/03/30 05:56:41;;;;;;;17.65;3.47;;;;;;;;;;5077598;28;20162;-69
2023/03/30 05:59:08;;;;;;;26.63;3.70;;;;;;;;;;5080953;28;20048;-69
2023/03/30 06:01:36;;;;;;;20.55;4.18;;;;;;;;;;5085737;28;20396;-69
2023/03/30 06:04:03;;;;;;;18.17;4.22;;;;;;;;;;5083975;28;20119;-69
2023/03/30 06:06:31;;;;;;;24.38;4.30;;;;;;;;;;5064203;28;21115;-70
2023/03/30 06:08:58;;;;;;;18.48;3.88;;;;;;;;;;5080301;28;20513;-69
2023/03/30 06:11:27;;;;;;;20.15;4.75;;;;;;;;;;5072038;28;20052;-69
2023/03/30 06:13:54;;;;;;;16.50;3.78;;;;;;;;;;5083117;28;20056;-69
2023/03/30 06:16:21;;;;;;;15.00;3.40;;;;;;;;;;5086911;28;20043;-69
2023/03/30 06:18:49;;;;;;;22.30;3.88;;;;;;;;;;5061822;28;20056;-69
2023/03/30 06:21:16;;;;;;;22.48;3.67;;;;;;;;;;5080782;28;20061;-69
2023/03/30 06:23:43;;;;;;;30.00;4.15;;;;;;;;;;5082397;28;20044;-69
2023/03/30 06:26:10;;;;;;;24.45;4.05;;;;;;;;;;5067140;28;20063;-69
2023/03/30 06:28:40;;;;;;;20.20;3.50;;;;;;;;;;5057408;28;20044;-69
2023/03/30 06:31:10;;;;;;;23.35;4.60;;;;;;;;;;5078718;28;20048;-69
2023/03/30 06:33:38;;;;;;;19.65;3.10;;;;;;;;;;5059959;28;20139;-69
2023/03/30 06:36:10;;;;;;;21.83;4.30;;;;;;;;;;5080760;28;20051;-69
2023/03/30 06:38:37;;;;;;;26.10;3.80;;;;;;;;;;5081712;28;20044;-69
2023/03/30 06:41:05;;;;;;;27.95;3.75;;;;;;;;;;5080062;28;20044;-69
2023/03/30 06:43:33;;;;;;;25.90;4.22;;;;;;;;;;5080820;28;20090;-69
2023/03/30 06:46:01;;;;;;;21.92;3.53;;;;;;;;;;5083797;28;20059;-69
2023/03/30 06:48:29;;;;;;;27.33;4.40;;;;;;;;;;5060285;28;20605;-69
2023/03/30 06:50:56;;;;;;;24.85;4.80;;;;;;;;;;5076035;28;20101;-69
2023/03/30 06:53:24;;;;;;;24.30;4.68;;;;;;;;;;5057379;28;20056;-69
2023/03/30 06:55:52;;;;;;;24.85;4.25;;;;;;;;;;5082600;28;20091;-69
2023/03/30 06:58:19;;;;;;;24.42;3.90;;;;;;;;;;5084825;28;20143;-69
2023/03/30 07:00:46;;;;;;;26.35;4.05;;;;;;;;;;5085449;28;20055;-69
2023/03/30 07:03:17;;;;;;;27.20;4.20;;;;;;;;;;5078742;28;20490;-69
2023/03/30 07:05:45;;;;;;;33.80;5.47;;;;;;;;;;5076860;28;20062;-69
2023/03/30 07:08:13;;;;;;;25.42;3.92;;;;;;;;;;5062429;28;20047;-69
2023/03/30 07:10:40;;;;;;;28.92;3.53;;;;;;;;;;5080805;28;20629;-71
2023/03/30 07:13:08;;;;;;;24.73;4.95;;;;;;;;;;5061917;28;20044;-69
2023/03/30 07:15:38;;;;;;;31.75;3.83;;;;;;;;;;5084758;28;20113;-69
2023/03/30 07:18:05;;;;;;;26.85;4.03;;;;;;;;;;5079584;28;20044;-69
2023/03/30 07:20:34;;;;;;;25.17;4.28;;;;;;;;;;5081055;28;20052;-69
2023/03/30 07:23:02;;;;;;;35.17;3.92;;;;;;;;;;5078297;28;20129;-69
2023/03/30 07:25:30;;;;;;;31.83;4.55;;;;;;;;;;5082411;28;20040;-69
2023/03/30 07:27:57;;;;;;;32.70;4.32;;;;;;;;;;5084302;28;20410;-69
2023/03/30 07:30:24;;;;;;;28.20;4.30;;;;;;;;;;5082063;28;20083;-70
2023/03/30 07:32:52;;;;;;;35.78;5.00;;;;;;;;;;5063326;28;20048;-70
2023/03/30 07:35:19;;;;;;;32.92;4.95;;;;;;;;;;5078338;28;20055;-69
2023/03/30 07:37:48;;;;;;;29.35;5.32;;;;;;;;;;5081865;28;20044;-69
2023/03/30 07:40:16;;;;;;;33.70;4.82;;;;;;;;;;5063939;28;20052;-69
2023/03/30 07:42:44;;;;;;;32.47;4.88;;;;;;;;;;5083913;28;20040;-70
2023/03/30 07:45:12;;;;;;;32.63;5.07;;;;;;;;;;5062924;28;20052;-69
2023/03/30 07:47:39;;;;;;;43.28;5.65;;;;;;;;;;5082908;28;20056;-69
2023/03/30 07:50:07;;;;;;;36.70;4.90;;;;;;;;;;5087930;28;20399;-69
2023/03/30 07:52:35;;;;;;;35.30;5.30;;;;;;;;;;5089064;28;20048;-69
2023/03/30 07:55:04;;;;;;;46.22;6.13;;;;;;;;;;5088198;28;20071;-70
2023/03/30 07:57:31;;;;;;;41.05;5.97;;;;;;;;;;5085920;28;20056;-69
2023/03/30 07:59:59;;;;;;;48.58;6.50;;;;;;;;;;5084243;28;20052;-69
2023/03/30 08:02:27;;;;;;;38.55;5.35;;;;;;;;;;5088475;28;20048;-70
2023/03/30 08:04:54;;;;;;;43.53;6.63;;;;;;;;;;5083423;28;20050;-69
2023/03/30 08:07:21;;;;;;;42.40;6.78;;;;;;;;;;5087139;28;20449;-69
2023/03/30 08:09:49;;;;;;;40.30;5.88;;;;;;;;;;5087297;28;20044;-70
2023/03/30 08:12:17;;;;;;;39.10;6.18;;;;;;;;;;5086206;28;20355;-69
2023/03/30 08:14:48;;;;;;;45.45;6.18;;;;;;;;;;5083584;28;20054;-69
2023/03/30 08:17:15;;;;;;;42.55;5.40;;;;;;;;;;5086696;28;20052;-69
2023/03/30 08:19:42;;;;;;;44.10;5.63;;;;;;;;;;5085018;28;20062;-69
2023/03/30 08:22:09;;;;;;;38.80;5.18;;;;;;;;;;5070473;28;20059;-70
2023/03/30 08:24:37;;;;;;;35.15;5.00;;;;;;;;;;5066576;28;20056;-69
2023/03/30 08:27:04;;;;;;;35.63;5.05;;;;;;;;;;5088284;28;20402;-69
2023/03/30 08:29:33;;;;;;;43.00;5.50;;;;;;;;;;5083526;28;20087;-71
2023/03/30 08:32:00;;;;;;;37.83;5.00;;;;;;;;;;5066404;28;20522;-69
2023/03/30 08:34:27;;;;;;;32.30;5.00;;;;;;;;;;5086197;28;20043;-69
2023/03/30 08:36:56;;;;;;;39.63;5.22;;;;;;;;;;5083952;28;20052;-70
2023/03/30 08:39:24;;;;;;;33.25;5.82;;;;;;;;;;5085843;28;20078;-70
2023/03/30 08:41:57;;;;;;;33.58;5.85;;;;;;;;;;5064799;28;20059;-69
2023/03/30 08:44:32;;;;;;;33.15;4.95;;;;;;;;;;5083874;28;20040;-70
2023/03/30 08:47:01;;;;;;;38.60;6.00;;;;;;;;;;5083076;28;20047;-70
2023/03/30 08:49:30;;;;;;;31.25;5.10;;;;;;;;;;5080864;28;20448;-69
2023/03/30 08:51:58;;;;;;;30.40;4.93;;;;;;;;;;5086976;28;20051;-70
2023/03/30 08:54:26;;;;;;;34.75;5.72;;;;;;;;;;5082194;28;20039;-70
2023/03/30 08:57:00;;;;;;;27.13;4.32;;;;;;;;;;5086566;28;20104;-69
2023/03/30 08:59:32;;;;;;;26.40;5.00;;;;;;;;;;5084016;28;20044;-69
2023/03/30 09:02:03;;;;;;;30.33;5.32;;;;;;;;;;5085628;28;20135;-69
2023/03/30 09:04:38;;;;;;;32.65;5.35;;;;;;;;;;5071229;28;20134;-69
2023/03/30 09:07:09;;;;;;;27.40;4.57;;;;;;;;;;5082231;28;20040;-69
2023/03/30 09:09:42;;;;;;;28.75;4.25;;;;;;;;;;5084471;28;20043;-69
2023/03/30 09:12:12;;;;;;;30.70;5.05;;;;;;;;;;5082790;28;20052;-69
2023/03/30 09:14:42;;;;;;;29.08;4.55;;;;;;;;;;5083937;28;20050;-69
2023/03/30 09:17:13;;;;;;;31.63;5.00;;;;;;;;;;5088135;28;20129;-69
2023/03/30 09:19:47;;;;;;;26.20;4.45;;;;;;;;;;5086960;28;20130;-69
2023/03/30 09:22:15;;;;;;;30.83;5.35;;;;;;;;;;5089146;28;20514;-69
2023/03/30 09:24:42;;;;;;;28.33;4.45;;;;;;;;;;5083223;28;20499;-69
2023/03/30 09:27:11;;;;;;;32.95;5.38;;;;;;;;;;5085889;28;20051;-70
2023/03/30 09:29:40;;;;;;;25.23;4.15;;;;;;;;;;5066226;28;20052;-70
2023/03/30 09:32:13;;;;;;;33.03;4.30;;;;;;;;;;5067586;28;20495;-69
2023/03/30 09:34:44;;;;;;;29.00;4.93;;;;;;;;;;5066980;28;20055;-69
2023/03/30 09:37:12;;;;;;;22.42;3.47;;;;;;;;;;5076087;28;20056;-68
2023/03/30 09:39:41;;;;;;;25.05;3.58;;;;;;;;;;5087680;28;20040;-69
2023/03/30 09:42:12;;;;;;;21.65;3.47;;;;;;;;;;5083961;28;20070;-68
2023/03/30 09:44:42;;;;;;;35.45;4.57;;;;;;;;;;5082175;28;20402;-69
2023/03/30 09:47:16;;;;;;;21.05;4.15;;;;;;;;;;5085035;28;20040;-68
2023/03/30 09:49:44;;;;;;;24.88;4.65;;;;;;;;;;5084653;28;20066;-69
2023/03/30 09:52:19;;;;;;;31.10;4.28;;;;;;;;;;5082577;28;20091;-69
2023/03/30 09:54:46;;;;;;;28.45;5.57;;;;;;;;;;5086700;28;20479;-69
2023/03/30 09:57:23;;;;;;;29.45;4.65;;;;;;;;;;5080713;28;20056;-68
2023/03/30 09:59:51;;;;;;;33.83;5.53;;;;;;;;;;5079601;28;20055;-68
2023/03/30 10:02:21;;;;;;;28.08;3.90;;;;;;;;;;5083193;28;20044;-69
2023/03/30 10:05:09;;;;;;;32.10;3.95;;;;;;;;;;5084909;28;20059;-68
2023/03/30 10:07:37;;;;;;;28.02;5.22;;;;;;;;;;5083023;28;20075;-69
2023/03/30 10:10:14;;;;;;;37.15;5.07;;;;;;;;;;5085884;28;20530;-69
2023/03/30 10:12:41;;;;;;;29.30;4.50;;;;;;;;;;5084094;28;20056;-69
2023/03/30 10:15:15;;;;;;;25.58;4.68;;;;;;;;;;5082483;28;20067;-68
2023/03/30 10:17:45;;;;;;;30.33;4.97;;;;;;;;;;5087796;28;20055;-68
2023/03/30 10:20:21;;;;;;;38.85;6.38;;;;;;;;;;5083173;28;20044;-68
2023/03/30 10:22:50;;;;;;;32.72;5.07;;;;;;;;;;5079479;28;20071;-69
2023/03/30 10:25:20;;;;;;;38.80;5.55;;;;;;;;;;5066642;28;20052;-69
2023/03/30 10:27:52;;;;;;;41.53;5.85;;;;;;;;;;5079358;28;20048;-69
2023/03/30 10:30:20;;;;;;;33.28;5.43;;;;;;;;;;5082938;28;20054;-68
2023/03/30 10:32:48;;;;;;;45.67;6.78;;;;;;;;;;5081627;28;20052;-69
2023/03/30 10:35:19;;;;;;;36.05;6.40;;;;;;;;;;5083276;28;20044;-69
2023/03/30 10:37:47;;;;;;;38.40;6.10;;;;;;;;;;5085369;28;20043;-69
2023/03/30 10:40:17;;;;;;;32.72;5.93;;;;;;;;;;5080244;28;20079;-69
2023/03/30 10:42:46;;;;;;;48.30;6.38;;;;;;;;;;5077437;28;20048;-68
2023/03/30 10:45:17;;;;;;;34.90;6.45;;;;;;;;;;5082575;28;20446;-69
2023/03/30 10:47:59;;;;;;;34.45;5.53;;;;;;;;;;5083799;28;20044;-69
2023/03/30 10:50:31;;;;;;;34.72;5.43;;;;;;;;;;5073692;28;20475;-68
2023/03/30 10:53:03;;;;;;;40.85;5.97;;;;;;;;;;5080178;28;20108;-69
2023/03/30 10:55:33;;;;;;;34.47;6.05;;;;;;;;;;5086937;28;20482;-69
2023/03/30 10:58:08;;;;;;;38.63;6.55;;;;;;;;;;5080765;28;20668;-69
2023/03/30 11:00:45;;;;;;;34.50;6.80;;;;;;;;;;5084337;28;20062;-69
2023/03/30 11:03:18;;;;;;;32.55;6.00;;;;;;;;;;5083750;28;20082;-69
2023/03/30 11:05:48;;;;;;;34.97;6.38;;;;;;;;;;5074873;28;20083;-69
2023/03/30 11:08:16;;;;;;;41.08;6.95;;;;;;;;;;5075459;28;20048;-71
2023/03/30 11:10:46;;;;;;;38.17;5.70;;;;;;;;;;5080679;28;20053;-70
2023/03/30 11:13:16;;;;;;;40.88;6.00;;;;;;;;;;5067191;28;20114;-69
2023/03/30 11:15:47;;;;;;;40.28;5.50;;;;;;;;;;5082039;28;20526;-69
2023/03/30 11:18:20;;;;;;;38.50;6.28;;;;;;;;;;5065160;28;20068;-70
2023/03/30 11:20:54;;;;;;;31.50;5.57;;;;;;;;;;5084652;28;20054;-70
2023/03/30 11:23:24;;;;;;;44.85;7.28;;;;;;;;;;5083312;28;20301;-69
2023/03/30 11:25:58;;;;;;;44.50;7.10;;;;;;;;;;5069942;28;20407;-70
2023/03/30 11:28:35;;;;;;;35.25;6.78;;;;;;;;;;5086998;28;20052;-69
2023/03/30 11:31:07;;;;;;;37.28;6.85;;;;;;;;;;5084933;28;20047;-69
2023/03/30 11:33:37;;;;;;;37.28;5.82;;;;;;;;;;5081197;28;20147;-69
2023/03/30 11:36:07;;;;;;;35.13;6.68;;;;;;;;;;5087137;28;20044;-69
2023/03/30 11:38:39;;;;;;;35.20;6.28;;;;;;;;;;5086810;28;20047;-69
2023/03/30 11:41:10;;;;;;;43.30;7.05;;;;;;;;;;5067975;28;20098;-69
2023/03/30 11:43:38;;;;;;;44.38;7.85;;;;;;;;;;5069595;28;20131;-69
2023/03/30 11:46:08;;;;;;;40.33;6.90;;;;;;;;;;5090034;28;20044;-69
2023/03/30 11:48:51;;;;;;;42.00;6.97;;;;;;;;;;5085654;28;21610;-69
2023/03/30 11:51:28;;;;;;;44.13;7.05;;;;;;;;;;5081212;28;20356;-69
2023/03/30 11:53:58;;;;;;;36.70;6.22;;;;;;;;;;5085761;28;20807;-69
2023/03/30 11:56:30;;;;;;;37.40;5.57;;;;;;;;;;5084004;28;20059;-69
2023/03/30 11:59:03;;;;;;;41.17;6.55;;;;;;;;;;5078840;28;20045;-70
2023/03/30 12:01:41;;;;;;;37.27;6.03;;;;;;;;;;5064115;28;20098;-70
2023/03/30 12:04:11;;;;;;;42.92;6.47;;;;;;;;;;5082380;28;20420;-70
2023/03/30 12:06:40;;;;;;;41.78;6.22;;;;;;;;;;5085982;28;20047;-70
2023/03/30 12:09:24;;;;;;;43.92;7.25;;;;;;;;;;5090938;28;20104;-69
2023/03/30 12:11:54;;;;;;;36.88;7.57;;;;;;;;;;5057582;28;20107;-70
2023/03/30 12:14:29;;;;;;;38.22;6.90;;;;;;;;;;5061527;28;20408;-70
2023/03/30 12:17:00;;;;;;;44.00;6.90;;;;;;;;;;5064807;28;20051;-69
2023/03/30 12:19:30;;;;;;;41.63;7.88;;;;;;;;;;5064383;28;20124;-70
2023/03/30 12:21:59;;;;;;;41.85;6.90;;;;;;;;;;5069955;28;20385;-70
2023/03/30 12:24:30;;;;;;;41.85;6.97;;;;;;;;;;5063611;28;20045;-70
2023/03/30 12:26:57;;;;;;;41.63;6.85;;;;;;;;;;5064601;28;20045;-70
2023/03/30 12:29:24;;;;;;;38.72;6.53;;;;;;;;;;5062745;28;20464;-70
2023/03/30 12:32:05;;;;;;;40.05;6.47;;;;;;;;;;5060715;28;20055;-70
2023/03/30 12:34:35;;;;;;;39.45;7.40;;;;;;;;;;5064427;28;20060;-70
2023/03/30 12:37:05;;;;;;;34.72;6.50;;;;;;;;;;5066066;28;20053;-70
2023/03/30 12:39:35;;;;;;;40.38;7.15;;;;;;;;;;5065759;28;20044;-70
2023/03/30 12:42:05;;;;;;;41.22;7.07;;;;;;;;;;5063104;28;20067;-70
2023/03/30 12:44:39;;;;;;;40.88;7.40;;;;;;;;;;5067010;28;20044;-71
2023/03/30 12:47:19;;;;;;;39.13;6.22;;;;;;;;;;5056477;28;20483;-70
2023/03/30 12:49:57;;;;;;;42.08;7.55;;;;;;;;;;5059380;28;20041;-70
2023/03/30 12:52:28;;;;;;;43.67;7.28;;;;;;;;;;5062126;28;20107;-70
2023/03/30 12:55:11;;;;;;;30.58;6.70;;;;;;;;;;5063761;28;20062;-70
2023/03/30 12:57:46;;;;;;;40.22;7.50;;;;;;;;;;5055929;28;20052;-70
2023/03/30 13:00:24;;;;;;;39.60;7.75;;;;;;;;;;5063198;28;20056;-71
2023/03/30 13:03:02;;;;;;;40.42;7.82;;;;;;;;;;5070600;28;20444;-70
2023/03/30 13:05:32;;;;;;;46.92;7.43;;;;;;;;;;5061255;28;20049;-71
2023/03/30 13:08:03;;;;;;;41.40;7.68;;;;;;;;;;5058744;28;20098;-70
2023/03/30 13:10:41;;;;;;;51.10;8.63;;;;;;;;;;5065035;28;20108;-70
2023/03/30 13:13:17;;;;;;;40.85;7.88;;;;;;;;;;5077549;28;20067;-70
2023/03/30 13:15:47;;;;;;;43.13;8.98;;;;;;;;;;5086830;28;20454;-70
2023/03/30 13:18:26;;;;;;;40.20;7.68;;;;;;;;;;5069383;28;20062;-70
2023/03/30 13:21:17;;;;;;;41.78;6.78;;;;;;;;;;5083991;28;20101;-70
2023/03/30 13:23:45;;;;;;;49.38;8.68;;;;;;;;;;5084529;28;20052;-71
2023/03/30 13:26:24;;;;;;;42.22;7.75;;;;;;;;;;5062946;28;20079;-71
2023/03/30 13:29:04;;;;;;;42.05;7.22;;;;;;;;;;5083620;28;20059;-70
2023/03/30 13:31:40;;;;;;;43.72;8.45;;;;;;;;;;5083935;28;20628;-70
2023/03/30 13:34:14;;;;;;;40.05;7.03;;;;;;;;;;5084585;28;20055;-71
2023/03/30 13:36:45;;;;;;;46.03;8.52;;;;;;;;;;5087253;28;20169;-70
2023/03/30 13:39:19;;;;;;;40.67;8.52;;;;;;;;;;5085592;28;20511;-70
2023/03/30 13:41:51;;;;;;;36.83;7.30;;;;;;;;;;5066951;28;20051;-71
2023/03/30 13:44:29;;;;;;;35.25;7.80;;;;;;;;;;5084844;28;20048;-71
2023/03/30 13:47:00;;;;;;;38.55;8.13;;;;;;;;;;5087434;28;20127;-71
2023/03/30 13:49:34;;;;;;;38.40;7.43;;;;;;;;;;5077885;28;20044;-71
2023/03/30 13:52:05;;;;;;;39.42;7.60;;;;;;;;;;5077121;28;20058;-70
2023/03/30 13:54:33;;;;;;;28.23;6.35;;;;;;;;;;5087178;28;20048;-71
2023/03/30 13:57:04;;;;;;;36.10;6.85;;;;;;;;;;5065614;28;20052;-71
2023/03/30 13:59:32;;;;;;;37.00;7.28;;;;;;;;;;5084123;28;20080;-71
2023/03/30 14:02:01;;;;;;;33.85;7.03;;;;;;;;;;5081853;28;20055;-71
2023/03/30 14:04:29;;;;;;;37.80;7.25;;;;;;;;;;5087074;28;20039;-71
2023/03/30 14:06:57;;;;;;;38.35;7.22;;;;;;;;;;5082848;28;20044;-71
2023/03/30 14:09:27;;;;;;;37.05;6.88;;;;;;;;;;5081707;28;20559;-71
2023/03/30 14:11:56;;;;;;;42.63;7.47;;;;;;;;;;5081986;28;20058;-71
2023/03/30 14:14:26;;;;;;;43.75;7.47;;;;;;;;;;5088389;28;20126;-71
2023/03/30 14:16:54;;;;;;;42.67;7.65;;;;;;;;;;5057641;28;20047;-71
2023/03/30 14:19:23;;;;;;;36.70;6.93;;;;;;;;;;5084300;28;20052;-71
2023/03/30 14:21:52;;;;;;;42.10;7.43;;;;;;;;;;5083074;28;20051;-71
2023/03/30 14:24:20;;;;;;;43.35;7.90;;;;;;;;;;5081045;28;20058;-70
2023/03/30 14:26:49;;;;;;;42.30;7.40;;;;;;;;;;5084275;28;20050;-70
2023/03/30 14:29:18;;;;;;;42.65;7.30;;;;;;;;;;5080872;28;20049;-70
2023/03/30 14:31:45;;;;;;;41.10;7.78;;;;;;;;;;5081190;28;20060;-70
2023/03/30 14:34:26;;;;;;;43.10;8.10;;;;;;;;;;5078311;28;20055;-70
2023/03/30 14:36:53;;;;;;;40.78;7.32;;;;;;;;;;5079788;28;20040;-70
2023/03/30 14:39:22;;;;;;;45.78;7.43;;;;;;;;;;5062868;28;20055;-70
2023/03/30 14:41:55;;;;;;;45.95;7.78;;;;;;;;;;5085698;28;20044;-70
2023/03/30 14:44:23;;;;;;;51.17;8.45;;;;;;;;;;5084582;28;20137;-71
2023/03/30 14:46:51;;;;;;;55.20;8.68;;;;;;;;;;5081489;28;20044;-70
2023/03/30 14:49:21;;;;;;;50.20;7.05;;;;;;;;;;5085508;28;20059;-70